createdAt,value
2023-03-24T00:00:20.476Z,92.81
2023-03-24T00:01:20.414Z,93.12
2023-03-24T00:03:50.935Z,92.81
2023-03-24T00:04:50.904Z,92.91
2023-03-24T00:05:50.880Z,92.71
2023-03-24T00:06:50.862Z,92.36
2023-03-24T00:07:54.580Z,92.81
2023-03-24T00:08:50.841Z,92.30
2023-03-24T00:09:50.840Z,92.71
2023-03-24T00:10:50.829Z,93.12
2023-03-24T00:11:50.815Z,93.12
2023-03-24T00:12:50.801Z,93.63
2023-03-24T00:13:51.088Z,93.52
2023-03-24T00:14:50.778Z,93.43
2023-03-24T00:15:50.793Z,93.63
2023-03-24T00:16:50.755Z,93.32
2023-03-24T00:17:50.808Z,93.63
2023-03-24T00:18:50.753Z,93.32
2023-03-24T00:19:50.726Z,93.52
2023-03-24T00:20:50.724Z,93.12
2023-03-24T00:21:50.717Z,93.12
2023-03-24T00:22:50.718Z,92.91
2023-03-24T00:23:50.684Z,92.16
2023-03-24T00:24:50.676Z,93.18
2023-03-24T00:25:50.675Z,93.38
2023-03-24T00:26:50.669Z,93.38
2023-03-24T00:27:50.644Z,93.12
2023-03-24T00:28:50.639Z,93.32
2023-03-24T00:29:50.629Z,92.87
2023-03-24T00:30:50.623Z,93.12
2023-03-24T00:31:50.611Z,92.91
2023-03-24T00:32:50.596Z,93.43
2023-03-24T00:33:50.618Z,93.12
2023-03-24T00:34:50.576Z,93.79
2023-03-24T00:35:50.627Z,93.02
2023-03-24T00:36:50.555Z,93.93
2023-03-24T00:37:50.548Z,94.85
2023-03-24T00:38:50.559Z,94.55
2023-03-24T00:39:50.553Z,92.91
2023-03-24T00:40:50.553Z,93.32
2023-03-24T00:41:50.510Z,93.32
2023-03-24T00:42:50.529Z,93.32
2023-03-24T00:43:50.492Z,94.34
2023-03-24T00:44:50.485Z,93.63
2023-03-24T00:45:50.475Z,92.81
2023-03-24T00:46:50.520Z,93.22
2023-03-24T00:47:50.590Z,93.02
2023-03-24T00:48:50.435Z,93.63
2023-03-24T00:49:50.438Z,93.12
2023-03-24T00:50:50.425Z,93.79
2023-03-24T00:51:50.412Z,92.87
2023-03-24T00:52:50.394Z,93.28
2023-03-24T00:53:50.388Z,93.63
2023-03-24T00:54:50.376Z,93.22
2023-03-24T00:55:50.381Z,93.32
2023-03-24T00:56:50.384Z,93.52
2023-03-24T00:57:50.509Z,93.63
2023-03-24T00:58:50.333Z,93.28
2023-03-24T00:59:50.327Z,93.73
2023-03-24T01:00:50.378Z,94.85
2023-03-24T01:01:50.315Z,94.81
2023-03-24T01:02:50.319Z,94.45
2023-03-24T01:03:50.278Z,94.45
2023-03-24T01:04:50.264Z,94.65
2023-03-24T01:05:50.272Z,93.84
2023-03-24T01:06:50.241Z,94.34
2023-03-24T01:07:50.234Z,93.43
2023-03-24T01:08:50.247Z,94.75
2023-03-24T01:09:50.262Z,93.43
2023-03-24T01:10:50.295Z,94.24
2023-03-24T01:11:50.197Z,94.34
2023-03-24T01:12:50.183Z,93.63
2023-03-24T01:13:50.175Z,93.73
2023-03-24T01:14:50.163Z,94.34
2023-03-24T01:15:50.162Z,94.34
2023-03-24T01:16:50.162Z,94.45
2023-03-24T01:17:50.182Z,93.52
2023-03-24T01:18:50.114Z,94.55
2023-03-24T01:19:50.110Z,94.75
2023-03-24T01:20:50.091Z,94.04
2023-03-24T01:21:50.093Z,94.65
2023-03-24T01:22:50.081Z,94.45
2023-03-24T01:23:50.061Z,94.34
2023-03-24T01:24:50.060Z,93.63
2023-03-24T01:25:51.169Z,94.34
2023-03-24T01:26:51.164Z,94.70
2023-03-24T01:27:51.155Z,93.93
2023-03-24T01:28:51.152Z,94.75
2023-03-24T01:29:51.133Z,94.55
2023-03-24T01:30:51.109Z,94.55
2023-03-24T01:31:51.157Z,94.65
2023-03-24T01:32:51.099Z,93.84
2023-03-24T01:33:51.082Z,94.45
2023-03-24T01:34:51.071Z,94.75
2023-03-24T01:35:51.067Z,94.79
2023-03-24T01:36:51.060Z,95.06
2023-03-24T01:37:51.048Z,94.95
2023-03-24T01:38:51.024Z,95.47
2023-03-24T01:39:51.018Z,95.47
2023-03-24T01:40:51.010Z,94.24
2023-03-24T01:41:51.023Z,94.55
2023-03-24T01:42:50.999Z,94.34
2023-03-24T01:43:50.976Z,93.93
2023-03-24T01:44:50.975Z,94.45
2023-03-24T01:45:51.058Z,94.38
2023-03-24T01:46:50.964Z,94.49
2023-03-24T01:47:51.015Z,94.34
2023-03-24T01:48:50.950Z,94.34
2023-03-24T01:49:50.925Z,93.93
2023-03-24T01:50:50.907Z,94.45
2023-03-24T01:51:50.919Z,94.55
2023-03-24T01:52:50.921Z,94.65
2023-03-24T01:53:50.890Z,94.34
2023-03-24T01:54:50.871Z,94.65
2023-03-24T01:55:50.873Z,93.63
2023-03-24T01:56:50.913Z,94.75
2023-03-24T01:57:51.873Z,94.75
2023-03-24T01:58:50.849Z,94.55
2023-03-24T01:59:50.827Z,94.24
2023-03-24T02:00:50.851Z,94.34
2023-03-24T02:01:50.822Z,94.55
2023-03-24T02:02:50.852Z,94.75
2023-03-24T02:03:50.799Z,94.34
2023-03-24T02:04:50.777Z,94.04
2023-03-24T02:05:50.780Z,93.93
2023-03-24T02:06:50.779Z,94.14
2023-03-24T02:07:50.776Z,94.34
2023-03-24T02:08:50.756Z,94.45
2023-03-24T02:09:50.727Z,94.95
2023-03-24T02:10:50.717Z,94.75
2023-03-24T02:11:50.724Z,94.65
2023-03-24T02:12:50.697Z,94.55
2023-03-24T02:13:50.692Z,94.75
2023-03-24T02:14:50.687Z,94.95
2023-03-24T02:15:50.720Z,93.98
2023-03-24T02:16:50.670Z,94.49
2023-03-24T02:17:50.790Z,94.24
2023-03-24T02:18:50.645Z,95.16
2023-03-24T02:19:50.629Z,94.38
2023-03-24T02:20:50.619Z,94.90
2023-03-24T02:21:50.626Z,94.34
2023-03-24T02:22:50.612Z,94.34
2023-03-24T02:23:50.601Z,94.65
2023-03-24T02:24:50.592Z,94.49
2023-03-24T02:25:50.575Z,94.34
2023-03-24T02:26:50.600Z,94.55
2023-03-24T02:27:50.583Z,94.49
2023-03-24T02:28:50.556Z,94.45
2023-03-24T02:29:50.554Z,94.45
2023-03-24T02:30:50.527Z,94.38
2023-03-24T02:31:50.611Z,94.38
2023-03-24T02:32:50.531Z,93.84
2023-03-24T02:33:50.501Z,93.77
2023-03-24T02:34:50.500Z,93.88
2023-03-24T02:35:50.516Z,93.77
2023-03-24T02:36:50.491Z,94.55
2023-03-24T02:37:50.472Z,94.65
2023-03-24T02:38:50.463Z,93.93
2023-03-24T02:39:50.467Z,93.93
2023-03-24T02:40:50.442Z,93.67
2023-03-24T02:41:50.441Z,93.77
2023-03-24T02:42:50.468Z,93.52
2023-03-24T02:43:50.419Z,93.43
2023-03-24T02:44:50.413Z,93.32
2023-03-24T02:45:50.400Z,93.02
2023-03-24T02:46:50.426Z,93.52
2023-03-24T02:47:50.407Z,93.37
2023-03-24T02:48:50.368Z,94.18
2023-03-24T02:49:50.346Z,93.57
2023-03-24T02:50:50.337Z,94.38
2023-03-24T02:51:50.363Z,93.47
2023-03-24T02:52:50.351Z,94.18
2023-03-24T02:53:50.359Z,93.57
2023-03-24T02:54:50.316Z,94.59
2023-03-24T02:55:50.298Z,94.59
2023-03-24T02:56:50.348Z,94.70
2023-03-24T02:57:50.301Z,94.38
2023-03-24T02:58:50.272Z,93.88
2023-03-24T02:59:50.272Z,94.79
2023-03-24T03:00:50.262Z,94.18
2023-03-24T03:01:50.324Z,94.29
2023-03-24T03:02:50.297Z,94.59
2023-03-24T03:03:50.253Z,94.70
2023-03-24T03:04:50.293Z,94.49
2023-03-24T03:05:50.201Z,94.90
2023-03-24T03:06:50.187Z,94.18
2023-03-24T03:07:50.201Z,93.88
2023-03-24T03:08:50.176Z,93.88
2023-03-24T03:09:50.161Z,93.16
2023-03-24T03:10:50.152Z,93.67
2023-03-24T03:11:50.140Z,93.67
2023-03-24T03:12:50.644Z,94.29
2023-03-24T03:13:50.135Z,94.18
2023-03-24T03:14:50.120Z,94.49
2023-03-24T03:15:50.136Z,93.62
2023-03-24T03:16:50.124Z,94.79
2023-03-24T03:17:50.146Z,94.53
2023-03-24T03:18:50.112Z,94.64
2023-03-24T03:19:50.080Z,94.53
2023-03-24T03:20:50.063Z,94.53
2023-03-24T03:21:50.047Z,94.33
2023-03-24T03:22:50.053Z,94.43
2023-03-24T03:23:50.024Z,94.43
2023-03-24T03:24:50.030Z,94.59
2023-03-24T03:25:50.011Z,93.88
2023-03-24T03:26:49.997Z,94.02
2023-03-24T03:27:50.005Z,94.53
2023-03-24T03:28:50.070Z,94.49
2023-03-24T03:29:49.970Z,94.53
2023-03-24T03:30:49.984Z,94.59
2023-03-24T03:31:49.943Z,94.64
2023-03-24T03:32:50.009Z,94.49
2023-03-24T03:33:49.937Z,94.38
2023-03-24T03:34:49.934Z,94.38
2023-03-24T03:35:49.932Z,94.49
2023-03-24T03:36:49.899Z,94.59
2023-03-24T03:37:49.902Z,94.53
2023-03-24T03:38:49.888Z,94.70
2023-03-24T03:39:49.887Z,94.74
2023-03-24T03:40:49.873Z,94.59
2023-03-24T03:41:49.855Z,94.38
2023-03-24T03:42:49.871Z,93.92
2023-03-24T03:43:49.847Z,93.77
2023-03-24T03:44:49.827Z,93.67
2023-03-24T03:45:49.846Z,93.88
2023-03-24T03:46:49.808Z,93.77
2023-03-24T03:47:49.864Z,93.98
2023-03-24T03:48:49.792Z,93.88
2023-03-24T03:49:49.787Z,94.70
2023-03-24T03:50:53.318Z,94.49
2023-03-24T03:51:50.763Z,94.70
2023-03-24T03:52:49.767Z,94.59
2023-03-24T03:53:49.749Z,93.67
2023-03-24T03:54:49.732Z,94.08
2023-03-24T03:55:49.720Z,93.37
2023-03-24T03:56:49.736Z,93.98
2023-03-24T03:57:49.725Z,93.98
2023-03-24T03:58:49.688Z,93.98
2023-03-24T03:59:49.674Z,93.37
2023-03-24T04:00:49.667Z,93.67
2023-03-24T04:01:49.698Z,93.47
2023-03-24T04:02:49.704Z,93.67
2023-03-24T04:03:49.700Z,93.57
2023-03-24T04:04:59.519Z,93.77
2023-03-24T04:05:51.622Z,92.96
2023-03-24T04:06:49.613Z,93.06
2023-03-24T04:07:49.614Z,93.67
2023-03-24T04:08:49.620Z,92.96
2023-03-24T04:09:49.587Z,93.37
2023-03-24T04:10:49.579Z,93.31
2023-03-24T04:11:49.562Z,93.41
2023-03-24T04:12:49.581Z,93.51
2023-03-24T04:13:49.562Z,94.23
2023-03-24T04:14:49.542Z,94.94
2023-03-24T04:15:49.593Z,94.94
2023-03-24T04:16:49.514Z,93.86
2023-03-24T04:17:49.542Z,94.27
2023-03-24T04:18:49.506Z,94.48
2023-03-24T04:19:49.476Z,93.66
2023-03-24T04:20:49.474Z,94.58
2023-03-24T04:21:49.473Z,94.43
2023-03-24T04:22:49.452Z,94.48
2023-03-24T04:23:49.455Z,94.53
2023-03-24T04:24:49.438Z,94.48
2023-03-24T04:25:49.434Z,94.64
2023-03-24T04:26:49.418Z,95.15
2023-03-24T04:27:49.416Z,95.29
2023-03-24T04:28:49.412Z,94.68
2023-03-24T04:29:49.380Z,95.15
2023-03-24T04:30:49.397Z,94.98
2023-03-24T04:31:49.493Z,95.60
2023-03-24T04:32:49.406Z,95.04
2023-03-24T04:33:49.375Z,95.65
2023-03-24T04:34:49.355Z,95.56
2023-03-24T04:35:49.397Z,94.43
2023-03-24T04:36:49.355Z,94.94
2023-03-24T04:37:49.337Z,95.39
2023-03-24T04:38:49.318Z,95.29
2023-03-24T04:39:49.284Z,95.56
2023-03-24T04:40:50.299Z,95.45
2023-03-24T04:41:49.285Z,95.45
2023-03-24T04:42:49.283Z,96.06
2023-03-24T04:43:49.261Z,96.06
2023-03-24T04:44:49.246Z,95.45
2023-03-24T04:45:49.268Z,95.35
2023-03-24T04:46:50.249Z,95.76
2023-03-24T04:47:49.264Z,95.92
2023-03-24T04:48:49.229Z,94.79
2023-03-24T04:49:49.199Z,94.70
2023-03-24T04:50:49.191Z,94.59
2023-03-24T04:51:49.189Z,94.18
2023-03-24T04:52:49.172Z,93.43
2023-03-24T04:53:49.187Z,93.52
2023-03-24T04:54:49.157Z,93.02
2023-03-24T04:55:49.160Z,94.14
2023-03-24T04:56:49.176Z,93.52
2023-03-24T04:57:49.114Z,94.34
2023-03-24T04:58:49.125Z,93.52
2023-03-24T04:59:49.141Z,94.04
2023-03-24T05:00:49.189Z,94.34
2023-03-24T05:01:49.085Z,94.34
2023-03-24T05:02:49.087Z,94.55
2023-03-24T05:03:49.118Z,94.75
2023-03-24T05:04:49.081Z,94.70
2023-03-24T05:05:49.050Z,94.75
2023-03-24T05:06:49.040Z,93.98
2023-03-24T05:07:49.042Z,94.55
2023-03-24T05:08:49.004Z,94.95
2023-03-24T05:09:49.010Z,94.70
2023-03-24T05:10:49.005Z,94.14
2023-03-24T05:11:48.986Z,95.10
2023-03-24T05:12:48.969Z,94.34
2023-03-24T05:13:48.959Z,94.95
2023-03-24T05:14:48.986Z,95.00
2023-03-24T05:15:48.976Z,95.36
2023-03-24T05:16:49.023Z,95.81
2023-03-24T05:17:48.979Z,95.81
2023-03-24T05:18:48.930Z,95.97
2023-03-24T05:19:48.929Z,95.81
2023-03-24T05:20:48.912Z,94.65
2023-03-24T05:21:48.938Z,94.79
2023-03-24T05:22:48.884Z,95.36
2023-03-24T05:23:48.852Z,95.61
2023-03-24T05:24:48.867Z,95.72
2023-03-24T05:25:48.843Z,95.72
2023-03-24T05:26:48.829Z,95.51
2023-03-24T05:27:48.819Z,95.31
2023-03-24T05:28:48.808Z,95.51
2023-03-24T05:29:48.808Z,95.51
2023-03-24T05:30:48.810Z,95.57
2023-03-24T05:31:48.773Z,95.67
2023-03-24T05:32:48.826Z,95.51
2023-03-24T05:33:48.752Z,95.36
2023-03-24T05:34:48.761Z,95.72
2023-03-24T05:35:48.917Z,95.87
2023-03-24T05:36:48.729Z,94.45
2023-03-24T05:37:48.723Z,94.75
2023-03-24T05:38:48.710Z,95.26
2023-03-24T05:39:48.707Z,94.24
2023-03-24T05:40:49.686Z,94.55
2023-03-24T05:41:48.682Z,94.65
2023-03-24T05:42:48.676Z,95.67
2023-03-24T05:43:48.658Z,94.14
2023-03-24T05:44:48.654Z,95.67
2023-03-24T05:45:48.916Z,95.67
2023-03-24T05:46:48.651Z,94.85
2023-03-24T05:47:48.667Z,95.57
2023-03-24T05:48:48.616Z,95.06
2023-03-24T05:49:48.615Z,94.65
2023-03-24T05:50:48.596Z,94.75
2023-03-24T05:51:48.575Z,94.75
2023-03-24T05:52:48.573Z,94.34
2023-03-24T05:53:49.183Z,94.71
2023-03-24T05:54:56.142Z,94.50
2023-03-24T05:55:48.624Z,93.99
2023-03-24T05:56:51.184Z,94.81
2023-03-24T05:57:48.570Z,93.32
2023-03-24T05:58:48.554Z,93.79
2023-03-24T05:59:48.563Z,94.30
2023-03-24T06:00:48.516Z,94.50
2023-03-24T06:01:48.558Z,94.40
2023-03-24T06:02:48.614Z,94.55
2023-03-24T06:03:48.634Z,94.50
2023-03-24T06:04:48.516Z,94.30
2023-03-24T06:05:48.500Z,94.30
2023-03-24T06:06:48.499Z,94.95
2023-03-24T06:07:48.474Z,94.09
2023-03-24T06:08:48.464Z,95.62
2023-03-24T06:09:48.467Z,95.52
2023-03-24T06:10:48.487Z,95.47
2023-03-24T06:11:48.412Z,95.67
2023-03-24T06:12:48.404Z,95.26
2023-03-24T06:13:48.402Z,94.55
2023-03-24T06:14:48.428Z,94.20
2023-03-24T06:15:48.786Z,94.81
2023-03-24T06:16:48.364Z,94.75
2023-03-24T06:17:48.397Z,95.47
2023-03-24T06:18:48.365Z,94.81
2023-03-24T06:19:48.395Z,94.81
2023-03-24T06:20:48.353Z,94.26
2023-03-24T06:21:48.357Z,94.40
2023-03-24T06:22:48.312Z,94.40
2023-03-24T06:23:48.328Z,94.40
2023-03-24T06:24:48.295Z,94.30
2023-03-24T06:25:48.284Z,94.30
2023-03-24T06:26:48.276Z,93.89
2023-03-24T06:27:48.299Z,93.79
2023-03-24T06:28:48.263Z,93.13
2023-03-24T06:29:48.268Z,93.48
2023-03-24T06:30:48.316Z,93.54
2023-03-24T06:31:48.221Z,93.54
2023-03-24T06:32:48.237Z,93.74
2023-03-24T06:33:48.210Z,92.97
2023-03-24T06:34:48.178Z,93.64
2023-03-24T06:35:48.296Z,94.66
2023-03-24T06:36:48.173Z,93.59
2023-03-24T06:37:49.123Z,94.30
2023-03-24T06:38:48.154Z,94.26
2023-03-24T06:39:50.087Z,94.35
2023-03-24T06:40:48.420Z,94.20
2023-03-24T06:41:48.145Z,94.46
2023-03-24T06:42:48.773Z,94.15
2023-03-24T06:43:48.144Z,93.85
2023-03-24T06:44:48.093Z,94.50
2023-03-24T06:45:48.373Z,94.46
2023-03-24T06:46:48.108Z,94.60
2023-03-24T06:47:48.078Z,93.59
2023-03-24T06:48:48.060Z,93.24
2023-03-24T06:49:48.062Z,93.24
2023-03-24T06:50:48.045Z,93.54
2023-03-24T06:51:48.032Z,93.54
2023-03-24T06:52:48.049Z,92.93
2023-03-24T06:53:48.009Z,93.44
2023-03-24T06:54:47.990Z,93.54
2023-03-24T06:55:47.986Z,93.24
2023-03-24T06:56:47.996Z,92.79
2023-03-24T06:57:47.945Z,92.89
2023-03-24T06:58:48.948Z,93.09
2023-03-24T06:59:47.943Z,92.48
2023-03-24T07:00:48.062Z,93.09
2023-03-24T07:01:47.985Z,93.09
2023-03-24T07:02:48.003Z,92.84
2023-03-24T07:03:47.980Z,92.94
2023-03-24T07:04:47.929Z,91.31
2023-03-24T07:05:47.910Z,92.03
2023-03-24T07:07:03.582Z,91.22
2023-03-24T07:08:48.864Z,90.97
2023-03-24T07:09:47.836Z,92.35
2023-03-24T07:10:47.878Z,91.39
2023-03-24T07:11:47.858Z,90.27
2023-03-24T07:12:47.856Z,89.76
2023-03-24T07:13:47.806Z,87.89
2023-03-24T07:14:47.781Z,89.92
2023-03-24T07:15:47.821Z,89.01
2023-03-24T07:16:47.783Z,88.81
2023-03-24T07:17:47.832Z,88.10
2023-03-24T07:18:47.799Z,87.95
2023-03-24T07:19:47.775Z,87.95
2023-03-24T07:20:47.761Z,89.88
2023-03-24T07:21:47.751Z,88.06
2023-03-24T07:22:47.728Z,87.40
2023-03-24T07:23:47.702Z,87.81
2023-03-24T07:24:47.702Z,88.32
2023-03-24T07:25:47.700Z,87.45
2023-03-24T07:26:47.660Z,88.16
2023-03-24T07:27:47.653Z,87.95
2023-03-24T07:28:47.633Z,86.88
2023-03-24T07:29:47.622Z,87.89
2023-03-24T07:30:47.630Z,88.36
2023-03-24T07:31:47.665Z,87.55
2023-03-24T07:32:47.599Z,88.26
2023-03-24T07:33:47.583Z,88.26
2023-03-24T07:34:47.578Z,87.92
2023-03-24T07:35:47.716Z,87.04
2023-03-24T07:36:47.555Z,87.04
2023-03-24T07:37:47.594Z,87.10
2023-03-24T07:38:47.550Z,87.10
2023-03-24T07:39:47.550Z,85.88
2023-03-24T07:40:47.787Z,86.15
2023-03-24T07:41:47.550Z,87.26
2023-03-24T07:42:47.499Z,87.93
2023-03-24T07:43:47.530Z,86.47
2023-03-24T07:44:47.489Z,86.16
2023-03-24T07:45:47.956Z,84.24
2023-03-24T07:46:47.480Z,84.14
2023-03-24T07:47:47.516Z,85.05
2023-03-24T07:48:47.458Z,84.64
2023-03-24T07:49:47.457Z,84.28
2023-03-24T07:50:47.510Z,85.30
2023-03-24T07:51:47.434Z,85.09
2023-03-24T07:52:47.444Z,85.05
2023-03-24T07:53:47.444Z,84.00
2023-03-24T07:54:47.475Z,84.70
2023-03-24T07:55:47.433Z,83.39
2023-03-24T07:56:47.399Z,83.29
2023-03-24T07:57:47.361Z,83.80
2023-03-24T07:58:47.392Z,84.30
2023-03-24T07:59:47.325Z,84.16
2023-03-24T08:00:47.501Z,81.93
2023-03-24T08:01:48.653Z,82.95
2023-03-24T08:02:48.437Z,81.63
2023-03-24T08:03:47.473Z,83.49
2023-03-24T08:04:47.312Z,83.09
2023-03-24T08:05:47.552Z,83.73
2023-03-24T08:06:47.325Z,85.15
2023-03-24T08:07:47.284Z,84.18
2023-03-24T08:08:47.253Z,85.30
2023-03-24T08:09:47.225Z,83.87
2023-03-24T08:10:47.473Z,85.09
2023-03-24T08:11:47.217Z,84.38
2023-03-24T08:12:47.194Z,85.03
2023-03-24T08:13:47.198Z,84.42
2023-03-24T08:14:47.202Z,84.52
2023-03-24T08:15:47.329Z,84.72
2023-03-24T08:16:47.207Z,86.05
2023-03-24T08:17:47.169Z,86.31
2023-03-24T08:18:47.946Z,83.87
2023-03-24T08:19:59.060Z,84.52
2023-03-24T08:20:49.124Z,85.70
2023-03-24T08:21:47.119Z,84.63
2023-03-24T08:22:47.333Z,85.53
2023-03-24T08:23:47.085Z,85.13
2023-03-24T08:24:47.084Z,85.33
2023-03-24T08:25:47.279Z,84.93
2023-03-24T08:26:47.078Z,85.47
2023-03-24T08:27:47.055Z,85.53
2023-03-24T08:28:47.108Z,85.53
2023-03-24T08:29:47.096Z,84.89
2023-03-24T08:30:47.383Z,84.18
2023-03-24T08:31:47.133Z,83.06
2023-03-24T08:32:47.145Z,83.57
2023-03-24T08:33:47.063Z,83.98
2023-03-24T08:34:47.031Z,83.73
2023-03-24T08:35:47.656Z,83.63
2023-03-24T08:36:46.966Z,83.06
2023-03-24T08:37:47.176Z,82.05
2023-03-24T08:38:46.939Z,83.06
2023-03-24T08:39:46.966Z,82.35
2023-03-24T08:40:46.952Z,83.17
2023-03-24T08:41:46.932Z,82.96
2023-03-24T08:42:46.948Z,83.67
2023-03-24T08:43:46.933Z,82.86
2023-03-24T08:44:46.900Z,82.66
2023-03-24T08:45:47.195Z,83.31
2023-03-24T08:46:47.015Z,83.98
2023-03-24T08:47:46.958Z,84.18
2023-03-24T08:48:46.882Z,82.59
2023-03-24T08:49:46.845Z,79.18
2023-03-24T08:50:46.845Z,79.16
2023-03-24T08:51:46.833Z,80.31
2023-03-24T08:52:46.830Z,81.53
2023-03-24T08:53:46.840Z,81.98
2023-03-24T08:54:46.818Z,80.69
2023-03-24T08:55:47.098Z,82.62
2023-03-24T08:56:46.917Z,82.26
2023-03-24T08:57:46.797Z,82.05
2023-03-24T08:58:46.759Z,83.31
2023-03-24T08:59:47.335Z,81.58
2023-03-24T09:00:46.766Z,81.88
2023-03-24T09:01:46.776Z,82.43
2023-03-24T09:02:46.808Z,83.56
2023-03-24T09:03:46.706Z,82.74
2023-03-24T09:04:46.659Z,84.17
2023-03-24T09:05:46.650Z,83.04
2023-03-24T09:06:46.640Z,83.35
2023-03-24T09:07:46.650Z,81.41
2023-03-24T09:08:46.624Z,81.62
2023-03-24T09:09:46.604Z,82.84
2023-03-24T09:10:46.606Z,82.68
2023-03-24T09:11:46.575Z,81.62
2023-03-24T09:12:46.573Z,82.88
2023-03-24T09:13:46.579Z,80.84
2023-03-24T09:14:46.604Z,81.45
2023-03-24T09:15:46.872Z,80.84
2023-03-24T09:16:46.540Z,81.62
2023-03-24T09:17:46.666Z,81.96
2023-03-24T09:18:46.526Z,80.91
2023-03-24T09:19:46.494Z,81.72
2023-03-24T09:20:46.798Z,79.89
2023-03-24T09:21:46.505Z,81.41
2023-03-24T09:22:46.535Z,81.31
2023-03-24T09:23:46.491Z,80.29
2023-03-24T09:24:46.472Z,80.84
2023-03-24T09:25:46.622Z,80.84
2023-03-24T09:26:46.441Z,79.66
2023-03-24T09:27:46.483Z,79.86
2023-03-24T09:28:46.449Z,80.88
2023-03-24T09:29:46.429Z,83.53
2023-03-24T09:30:46.489Z,83.63
2023-03-24T09:31:46.449Z,83.43
2023-03-24T09:32:46.410Z,82.71
2023-03-24T09:33:46.363Z,82.00
2023-03-24T09:34:46.371Z,83.73
2023-03-24T09:35:46.379Z,82.00
2023-03-24T09:36:46.362Z,81.80
2023-03-24T09:37:46.371Z,82.55
2023-03-24T09:38:46.329Z,83.43
2023-03-24T09:39:46.330Z,85.06
2023-03-24T09:40:46.420Z,85.00
2023-03-24T09:41:46.328Z,84.63
2023-03-24T09:42:46.784Z,85.89
2023-03-24T09:43:47.279Z,86.14
2023-03-24T09:44:46.275Z,86.90
2023-03-24T09:45:46.521Z,86.43
2023-03-24T09:46:46.322Z,87.24
2023-03-24T09:47:46.299Z,88.57
2023-03-24T09:48:46.217Z,88.47
2023-03-24T09:49:46.217Z,88.68
2023-03-24T09:50:46.290Z,86.53
2023-03-24T09:51:46.241Z,87.45
2023-03-24T09:52:46.262Z,88.37
2023-03-24T09:53:46.228Z,88.57
2023-03-24T09:54:46.257Z,88.78
2023-03-24T09:55:46.326Z,90.31
2023-03-24T09:56:46.259Z,91.19
2023-03-24T09:57:46.192Z,90.27
2023-03-24T09:58:46.176Z,88.94
2023-03-24T09:59:46.306Z,90.43
2023-03-24T10:00:46.227Z,90.94
2023-03-24T10:01:46.117Z,88.18
2023-03-24T10:02:46.295Z,89.06
2023-03-24T10:03:46.264Z,88.35
2023-03-24T10:04:46.157Z,90.29
2023-03-24T10:05:46.136Z,89.37
2023-03-24T10:06:46.175Z,89.06
2023-03-24T10:07:46.088Z,88.45
2023-03-24T10:08:46.112Z,89.06
2023-03-24T10:09:46.058Z,86.61
2023-03-24T10:10:46.104Z,87.06
2023-03-24T10:11:47.109Z,87.06
2023-03-24T10:12:46.023Z,88.24
2023-03-24T10:13:46.017Z,89.06
2023-03-24T10:14:46.002Z,88.41
2023-03-24T10:15:46.036Z,88.20
2023-03-24T10:16:46.010Z,87.90
2023-03-24T10:17:46.079Z,87.18
2023-03-24T10:18:45.990Z,88.31
2023-03-24T10:19:45.971Z,88.10
2023-03-24T10:20:45.940Z,88.00
2023-03-24T10:21:45.941Z,86.57
2023-03-24T10:22:45.929Z,85.69
2023-03-24T10:23:45.966Z,87.94
2023-03-24T10:24:45.907Z,88.20
2023-03-24T10:25:46.128Z,85.79
2023-03-24T10:26:45.922Z,87.32
2023-03-24T10:27:45.867Z,88.45
2023-03-24T10:28:45.882Z,88.55
2023-03-24T10:29:45.894Z,88.04
2023-03-24T10:30:48.158Z,87.38
2023-03-24T10:31:46.001Z,87.63
2023-03-24T10:32:45.851Z,88.61
2023-03-24T10:33:45.853Z,88.71
2023-03-24T10:34:45.822Z,87.18
2023-03-24T10:35:45.886Z,86.26
2023-03-24T10:36:45.800Z,87.18
2023-03-24T10:37:46.323Z,86.57
2023-03-24T10:38:45.810Z,86.83
2023-03-24T10:39:45.779Z,86.02
2023-03-24T10:40:45.770Z,85.51
2023-03-24T10:41:45.797Z,83.98
2023-03-24T10:42:45.762Z,84.90
2023-03-24T10:43:45.772Z,87.14
2023-03-24T10:44:45.763Z,85.41
2023-03-24T10:45:45.938Z,84.33
2023-03-24T10:46:45.755Z,85.14
2023-03-24T10:47:45.754Z,85.55
2023-03-24T10:48:45.766Z,82.18
2023-03-24T10:49:45.693Z,83.14
2023-03-24T10:50:45.681Z,85.38
2023-03-24T10:51:45.625Z,86.91
2023-03-24T10:52:45.634Z,85.69
2023-03-24T10:53:45.645Z,85.94
2023-03-24T10:54:45.633Z,86.35
2023-03-24T10:55:45.759Z,87.32
2023-03-24T10:56:45.646Z,87.47
2023-03-24T10:57:45.590Z,87.94
2023-03-24T10:58:45.585Z,88.55
2023-03-24T10:59:45.533Z,88.76
2023-03-24T11:00:46.539Z,88.39
2023-03-24T11:01:45.700Z,87.26
2023-03-24T11:02:45.626Z,87.16
2023-03-24T11:03:45.576Z,88.18
2023-03-24T11:04:45.538Z,89.00
2023-03-24T11:05:45.544Z,88.33
2023-03-24T11:06:45.499Z,87.82
2023-03-24T11:07:45.507Z,88.02
2023-03-24T11:08:45.472Z,88.43
2023-03-24T11:09:45.573Z,88.53
2023-03-24T11:10:45.456Z,88.70
2023-03-24T11:11:45.418Z,88.23
2023-03-24T11:12:45.471Z,88.90
2023-03-24T11:13:45.417Z,88.94
2023-03-24T11:14:45.442Z,89.72
2023-03-24T11:15:45.430Z,88.53
2023-03-24T11:16:45.410Z,89.20
2023-03-24T11:17:45.419Z,88.90
2023-03-24T11:18:45.345Z,89.31
2023-03-24T11:19:45.347Z,88.45
2023-03-24T11:20:45.328Z,88.51
2023-03-24T11:21:45.323Z,86.88
2023-03-24T11:22:45.309Z,90.04
2023-03-24T11:23:45.291Z,88.37
2023-03-24T11:24:45.290Z,88.43
2023-03-24T11:25:45.267Z,86.90
2023-03-24T11:26:45.251Z,88.22
2023-03-24T11:27:45.265Z,85.92
2023-03-24T11:28:45.264Z,87.96
2023-03-24T11:29:45.270Z,90.06
2023-03-24T11:30:45.897Z,88.43
2023-03-24T11:31:46.249Z,90.94
2023-03-24T11:32:45.256Z,88.69
2023-03-24T11:33:45.215Z,86.65
2023-03-24T11:34:45.196Z,88.59
2023-03-24T11:35:50.353Z,89.92
2023-03-24T11:36:47.702Z,88.34
2023-03-24T11:37:46.157Z,85.90
2023-03-24T11:38:45.146Z,86.21
2023-03-24T11:39:45.140Z,87.02
2023-03-24T11:40:45.132Z,85.74
2023-03-24T11:41:45.113Z,86.35
2023-03-24T11:42:45.973Z,87.88
2023-03-24T11:43:46.095Z,86.96
2023-03-24T11:44:45.108Z,88.08
2023-03-24T11:45:45.078Z,86.96
2023-03-24T11:46:45.172Z,86.96
2023-03-24T11:47:45.197Z,86.24
2023-03-24T11:48:45.143Z,86.65
2023-03-24T11:49:45.795Z,85.49
2023-03-24T11:50:45.157Z,85.43
2023-03-24T11:51:45.072Z,86.10
2023-03-24T11:52:45.084Z,86.41
2023-03-24T11:53:46.474Z,86.71
2023-03-24T11:54:45.044Z,87.02
2023-03-24T11:55:45.039Z,84.98
2023-03-24T11:56:45.059Z,85.55
2023-03-24T11:57:45.011Z,88.31
2023-03-24T11:58:44.997Z,85.41
2023-03-24T11:59:44.992Z,83.78
2023-03-24T12:00:45.021Z,82.66
2023-03-24T12:01:45.002Z,84.19
2023-03-24T12:02:45.066Z,84.19
2023-03-24T12:03:45.009Z,84.12
2023-03-24T12:04:44.918Z,83.76
2023-03-24T12:05:45.007Z,83.56
2023-03-24T12:06:44.945Z,83.65
2023-03-24T12:07:44.902Z,84.58
2023-03-24T12:08:44.905Z,85.19
2023-03-24T12:09:44.924Z,84.74
2023-03-24T12:10:44.911Z,81.72
2023-03-24T12:11:44.869Z,83.45
2023-03-24T12:12:44.851Z,81.62
2023-03-24T12:13:44.859Z,84.00
2023-03-24T12:14:44.842Z,84.00
2023-03-24T12:15:44.883Z,84.00
2023-03-24T12:16:44.965Z,84.31
2023-03-24T12:17:44.848Z,83.96
2023-03-24T12:18:44.821Z,82.43
2023-03-24T12:19:44.814Z,81.62
2023-03-24T12:20:44.838Z,82.66
2023-03-24T12:21:44.786Z,82.01
2023-03-24T12:22:45.027Z,79.13
2023-03-24T12:23:44.792Z,81.16
2023-03-24T12:24:44.748Z,78.92
2023-03-24T12:25:44.774Z,79.57
2023-03-24T12:26:44.770Z,80.24
2023-03-24T12:27:44.733Z,80.76
2023-03-24T12:28:44.704Z,79.63
2023-03-24T12:29:44.725Z,78.86
2023-03-24T12:30:44.704Z,80.18
2023-03-24T12:31:44.737Z,79.98
2023-03-24T12:32:44.732Z,79.27
2023-03-24T12:33:44.646Z,77.84
2023-03-24T12:34:44.665Z,79.41
2023-03-24T12:35:44.700Z,78.25
2023-03-24T12:36:44.648Z,79.27
2023-03-24T12:37:44.642Z,81.06
2023-03-24T12:38:44.615Z,79.53
2023-03-24T12:39:44.616Z,79.50
2023-03-24T12:40:44.604Z,80.17
2023-03-24T12:41:44.557Z,77.72
2023-03-24T12:42:44.568Z,86.39
2023-03-24T12:43:44.548Z,81.07
2023-03-24T12:44:44.575Z,73.45
2023-03-24T12:45:44.612Z,67.30
2023-03-24T12:46:48.097Z,69.99
2023-03-24T12:47:45.557Z,67.36
2023-03-24T12:48:44.540Z,67.23
2023-03-24T12:49:44.493Z,69.15
2023-03-24T12:50:44.533Z,68.77
2023-03-24T12:51:44.497Z,66.83
2023-03-24T12:52:47.223Z,64.98
2023-03-24T12:53:44.460Z,64.98
2023-03-24T12:54:44.486Z,65.01